createdAt,value
2022-09-23T00:04:36.356Z,78.47
2022-09-23T00:14:41.026Z,78.35
2022-09-23T00:24:44.303Z,78.62
2022-09-23T00:34:49.882Z,78.34
2022-09-23T00:44:54.219Z,78.84
2022-09-23T00:55:00.928Z,78.98
2022-09-23T01:05:04.941Z,79.18
2022-09-23T01:15:18.802Z,78.80
2022-09-23T01:25:40.891Z,79.03
2022-09-23T01:35:56.219Z,78.87
2022-09-23T01:46:01.367Z,78.82
2022-09-23T01:56:13.603Z,79.13
2022-09-23T02:06:18.984Z,80.07
2022-09-23T02:16:28.703Z,79.53
2022-09-23T02:26:36.307Z,79.65
2022-09-23T02:36:46.982Z,79.30
2022-09-23T02:46:52.275Z,79.73
2022-09-23T02:56:57.357Z,79.92
2022-09-23T03:07:06.266Z,79.73
2022-09-23T03:17:17.206Z,80.21
2022-09-23T03:27:26.761Z,81.24
2022-09-23T03:37:34.879Z,80.58
2022-09-23T03:47:39.569Z,80.73
2022-09-23T03:57:43.758Z,80.65
2022-09-23T04:07:46.504Z,81.01
2022-09-23T04:17:50.478Z,81.36
2022-09-23T04:27:53.123Z,81.34
2022-09-23T04:37:57.638Z,81.52
2022-09-23T04:48:00.273Z,81.75
2022-09-23T04:58:04.357Z,81.69
2022-09-23T05:08:07.074Z,81.94
2022-09-23T05:18:11.116Z,81.97
2022-09-23T05:28:14.974Z,81.95
2022-09-23T05:38:18.981Z,82.06
2022-09-23T05:48:21.693Z,82.18
2022-09-23T05:58:27.623Z,82.04
2022-09-23T06:08:30.342Z,82.24
2022-09-23T06:18:34.492Z,82.20
2022-09-23T06:28:38.982Z,82.04
2022-09-23T06:38:45.158Z,82.10
2022-09-23T06:48:49.090Z,81.59
2022-09-23T06:58:54.668Z,81.20
2022-09-23T07:08:57.330Z,80.32
2022-09-23T07:19:01.442Z,79.27
2022-09-23T07:29:05.613Z,78.07
2022-09-23T07:39:11.030Z,76.73
2022-09-23T07:49:13.711Z,75.90
2022-09-23T07:59:19.524Z,75.57
2022-09-23T08:09:24.378Z,74.41
2022-09-23T08:19:28.410Z,73.77
2022-09-23T08:29:31.130Z,73.12
2022-09-23T08:39:35.143Z,71.22
2022-09-23T08:49:41.195Z,70.00
2022-09-23T08:59:46.191Z,69.24
2022-09-23T09:09:53.073Z,68.07
2022-09-23T09:19:59.211Z,67.57
2022-09-23T09:30:02.259Z,67.55
2022-09-23T09:40:09.411Z,66.56
2022-09-23T09:50:19.099Z,65.52
2022-09-23T10:00:42.636Z,65.04
2022-09-23T10:10:54.840Z,62.64
2022-09-23T10:21:07.774Z,62.19
2022-09-23T10:31:13.135Z,62.18
2022-09-23T10:41:47.464Z,62.21
2022-09-23T10:51:57.858Z,62.08
2022-09-23T11:02:14.612Z,61.31
2022-09-23T11:12:27.430Z,61.47
2022-09-23T11:22:49.097Z,59.10
2022-09-23T11:33:14.534Z,57.82
2022-09-23T11:43:21.644Z,58.41
2022-09-23T11:53:33.836Z,56.88
2022-09-23T12:03:48.386Z,56.71
2022-09-23T12:13:57.491Z,55.81
2022-09-23T12:24:27.273Z,55.67
2022-09-23T12:34:37.720Z,56.52
2022-09-23T12:44:44.414Z,56.55
2022-09-23T12:54:48.457Z,56.68
2022-09-23T13:05:15.821Z,56.23
2022-09-23T13:15:30.447Z,54.30
2022-09-23T13:25:40.844Z,55.27
2022-09-23T13:35:51.071Z,56.03
2022-09-23T13:45:55.831Z,56.32
2022-09-23T13:56:04.625Z,57.16
2022-09-23T14:06:12.924Z,57.26
2022-09-23T14:16:17.130Z,54.93
2022-09-23T14:26:21.882Z,55.36
2022-09-23T14:36:42.174Z,56.41
2022-09-23T14:46:56.521Z,56.74
2022-09-23T14:56:59.433Z,57.97
2022-09-23T15:07:07.801Z,58.96
2022-09-23T15:17:19.473Z,60.01
2022-09-23T15:27:31.655Z,60.99
2022-09-23T15:37:36.488Z,62.11
2022-09-23T15:47:40.644Z,63.63
2022-09-23T15:57:43.316Z,65.99
2022-09-23T16:07:48.391Z,68.31
2022-09-23T16:17:51.916Z,69.69
2022-09-23T16:27:56.685Z,72.28
2022-09-23T16:37:59.341Z,74.25
2022-09-23T16:48:03.603Z,75.38
2022-09-23T16:58:06.253Z,76.40
2022-09-23T17:08:12.984Z,77.57
2022-09-23T17:18:19.429Z,78.62
2022-09-23T17:28:24.242Z,79.66
2022-09-23T17:38:29.403Z,80.25
2022-09-23T17:48:35.662Z,80.68
2022-09-23T17:58:39.032Z,81.30
2022-09-23T18:08:44.939Z,81.87
2022-09-23T18:18:51.856Z,82.52
2022-09-23T18:29:01.439Z,82.55
2022-09-23T18:39:05.257Z,82.62
2022-09-23T18:49:27.387Z,82.92
2022-09-23T18:59:30.229Z,83.63
2022-09-23T19:09:34.330Z,84.00
2022-09-23T19:19:37.284Z,84.43
2022-09-23T19:29:41.741Z,84.85
2022-09-23T19:39:44.679Z,85.04
2022-09-23T19:49:49.783Z,85.13
2022-09-23T19:59:52.482Z,85.29
2022-09-23T20:09:56.759Z,85.16
2022-09-23T20:19:59.718Z,85.46
2022-09-23T20:30:03.780Z,85.71
2022-09-23T20:40:10.088Z,86.02
2022-09-23T20:50:14.178Z,86.00
2022-09-23T21:00:18.323Z,85.98
2022-09-23T21:10:22.840Z,86.64
2022-09-23T21:20:25.555Z,86.53
2022-09-23T21:30:29.829Z,86.09
2022-09-23T21:40:49.951Z,86.22
2022-09-23T21:50:57.330Z,87.00
2022-09-23T22:01:01.034Z,87.46
2022-09-23T22:11:30.460Z,88.47
2022-09-23T22:21:33.728Z,87.77
2022-09-23T22:31:55.311Z,87.70
2022-09-23T22:41:58.410Z,88.42
2022-09-23T22:52:03.963Z,88.73
2022-09-23T23:02:07.600Z,88.91
2022-09-23T23:12:11.692Z,88.67
2022-09-23T23:22:14.381Z,89.31
2022-09-23T23:32:18.343Z,89.41
2022-09-23T23:42:21.044Z,89.83
2022-09-23T23:52:25.038Z,90.10
